sensor_id;sensor_type;location;lat;lon;timestamp;temperature;humidity
23081;DHT22;11708;50.570;8.532;2022-09-14T00:01:33;19.20;99.90
23081;DHT22;11708;50.570;8.532;2022-09-14T00:04:05;18.70;99.90
23081;DHT22;11708;50.570;8.532;2022-09-14T00:06:31;18.70;99.90
23081;DHT22;11708;50.570;8.532;2022-09-14T00:08:58;18.70;99.90
23081;DHT22;11708;50.570;8.532;2022-09-14T00:11:27;18.70;99.90
23081;DHT22;11708;50.570;8.532;2022-09-14T00:13:54;19.50;99.90
23081;DHT22;11708;50.570;8.532;2022-09-14T00:16:29;19.10;99.90
23081;DHT22;11708;50.570;8.532;2022-09-14T00:19:00;18.70;99.90
23081;DHT22;11708;50.570;8.532;2022-09-14T00:21:31;18.70;99.90
23081;DHT22;11708;50.570;8.532;2022-09-14T00:23:57;18.70;99.90
23081;DHT22;11708;50.570;8.532;2022-09-14T00:26:23;18.50;99.90
23081;DHT22;11708;50.570;8.532;2022-09-14T00:28:52;18.70;99.90
23081;DHT22;11708;50.570;8.532;2022-09-14T00:31:19;18.70;99.90
23081;DHT22;11708;50.570;8.532;2022-09-14T00:33:46;18.90;99.90
23081;DHT22;11708;50.570;8.532;2022-09-14T00:36:16;18.60;99.90
23081;DHT22;11708;50.570;8.532;2022-09-14T00:38:42;19.20;99.90
23081;DHT22;11708;50.570;8.532;2022-09-14T00:41:12;18.70;99.90
23081;DHT22;11708;50.570;8.532;2022-09-14T00:46:17;18.60;99.90
23081;DHT22;11708;50.570;8.532;2022-09-14T00:48:43;18.70;99.90
23081;DHT22;11708;50.570;8.532;2022-09-14T00:51:09;18.80;99.90
23081;DHT22;11708;50.570;8.532;2022-09-14T00:53:35;18.70;99.90
23081;DHT22;11708;50.570;8.532;2022-09-14T00:56:01;18.70;99.90
23081;DHT22;11708;50.570;8.532;2022-09-14T00:58:27;18.70;99.90
23081;DHT22;11708;50.570;8.532;2022-09-14T01:00:53;18.60;99.90
23081;DHT22;11708;50.570;8.532;2022-09-14T01:03:19;20.00;99.90
23081;DHT22;11708;50.570;8.532;2022-09-14T01:05:55;18.60;99.90
23081;DHT22;11708;50.570;8.532;2022-09-14T01:08:38;18.60;99.90
23081;DHT22;11708;50.570;8.532;2022-09-14T01:11:26;18.60;99.90
23081;DHT22;11708;50.570;8.532;2022-09-14T01:14:05;18.60;99.90
23081;DHT22;11708;50.570;8.532;2022-09-14T01:19:03;18.60;99.90
23081;DHT22;11708;50.570;8.532;2022-09-14T01:21:35;18.50;99.90
23081;DHT22;11708;50.570;8.532;2022-09-14T01:29:43;18.40;99.90
23081;DHT22;11708;50.570;8.532;2022-09-14T01:32:17;18.40;99.90
23081;DHT22;11708;50.570;8.532;2022-09-14T01:34:48;18.40;99.90
23081;DHT22;11708;50.570;8.532;2022-09-14T01:37:25;18.40;99.90
23081;DHT22;11708;50.570;8.532;2022-09-14T01:39:57;18.50;99.90
23081;DHT22;11708;50.570;8.532;2022-09-14T01:42:25;18.40;99.90
23081;DHT22;11708;50.570;8.532;2022-09-14T01:44:55;18.40;99.90
23081;DHT22;11708;50.570;8.532;2022-09-14T01:47:27;18.60;99.90
23081;DHT22;11708;50.570;8.532;2022-09-14T01:50:00;18.40;99.90
23081;DHT22;11708;50.570;8.532;2022-09-14T01:52:41;18.50;99.90
23081;DHT22;11708;50.570;8.532;2022-09-14T01:55:22;18.40;99.90
23081;DHT22;11708;50.570;8.532;2022-09-14T02:00:23;18.50;99.90
23081;DHT22;11708;50.570;8.532;2022-09-14T02:02:53;18.50;99.90
23081;DHT22;11708;50.570;8.532;2022-09-14T02:05:25;18.90;99.90
23081;DHT22;11708;50.570;8.532;2022-09-14T02:07:53;18.50;99.90
23081;DHT22;11708;50.570;8.532;2022-09-14T02:10:19;18.50;99.90
23081;DHT22;11708;50.570;8.532;2022-09-14T02:12:45;18.50;99.90
23081;DHT22;11708;50.570;8.532;2022-09-14T02:15:12;18.60;99.90
23081;DHT22;11708;50.570;8.532;2022-09-14T02:17:38;18.60;99.90
23081;DHT22;11708;50.570;8.532;2022-09-14T02:20:06;19.10;99.90
23081;DHT22;11708;50.570;8.532;2022-09-14T02:22:34;18.60;99.90
23081;DHT22;11708;50.570;8.532;2022-09-14T02:25:00;18.60;99.90
23081;DHT22;11708;50.570;8.532;2022-09-14T02:27:26;18.80;99.90
23081;DHT22;11708;50.570;8.532;2022-09-14T02:29:52;18.50;99.90
23081;DHT22;11708;50.570;8.532;2022-09-14T02:32:38;18.80;99.90
23081;DHT22;11708;50.570;8.532;2022-09-14T02:40:55;18.60;99.90
23081;DHT22;11708;50.570;8.532;2022-09-14T02:48:48;18.50;99.90
23081;DHT22;11708;50.570;8.532;2022-09-14T02:54:00;18.60;99.90
23081;DHT22;11708;50.570;8.532;2022-09-14T02:56:28;18.60;99.90
23081;DHT22;11708;50.570;8.532;2022-09-14T02:58:55;18.60;99.90
23081;DHT22;11708;50.570;8.532;2022-09-14T03:01:22;18.60;99.90
23081;DHT22;11708;50.570;8.532;2022-09-14T03:03:48;18.60;99.90
23081;DHT22;11708;50.570;8.532;2022-09-14T03:06:14;18.60;99.90
23081;DHT22;11708;50.570;8.532;2022-09-14T03:08:40;18.60;99.90
23081;DHT22;11708;50.570;8.532;2022-09-14T03:11:06;18.60;99.90
23081;DHT22;11708;50.570;8.532;2022-09-14T03:13:32;18.60;99.90
23081;DHT22;11708;50.570;8.532;2022-09-14T03:16:03;18.50;99.90
23081;DHT22;11708;50.570;8.532;2022-09-14T03:18:29;18.80;99.90
23081;DHT22;11708;50.570;8.532;2022-09-14T03:21:01;18.50;99.90
23081;DHT22;11708;50.570;8.532;2022-09-14T03:23:27;18.60;99.90
23081;DHT22;11708;50.570;8.532;2022-09-14T03:25:53;19.10;99.90
23081;DHT22;11708;50.570;8.532;2022-09-14T03:28:18;18.50;99.90
23081;DHT22;11708;50.570;8.532;2022-09-14T03:30:44;18.40;99.90
23081;DHT22;11708;50.570;8.532;2022-09-14T03:33:10;18.50;99.90
23081;DHT22;11708;50.570;8.532;2022-09-14T03:35:36;18.50;99.90
23081;DHT22;11708;50.570;8.532;2022-09-14T03:38:02;18.50;99.90
23081;DHT22;11708;50.570;8.532;2022-09-14T03:40:27;18.50;99.90
23081;DHT22;11708;50.570;8.532;2022-09-14T03:42:53;19.20;99.90
23081;DHT22;11708;50.570;8.532;2022-09-14T03:45:19;18.50;99.90
23081;DHT22;11708;50.570;8.532;2022-09-14T03:47:46;18.40;99.90
23081;DHT22;11708;50.570;8.532;2022-09-14T03:50:12;18.40;99.90
23081;DHT22;11708;50.570;8.532;2022-09-14T03:52:38;18.50;99.90
23081;DHT22;11708;50.570;8.532;2022-09-14T03:55:05;18.50;99.90
23081;DHT22;11708;50.570;8.532;2022-09-14T03:57:31;18.40;99.90
23081;DHT22;11708;50.570;8.532;2022-09-14T03:59:57;18.40;99.90
23081;DHT22;11708;50.570;8.532;2022-09-14T04:02:23;18.40;99.90
23081;DHT22;11708;50.570;8.532;2022-09-14T04:04:49;18.40;99.90
23081;DHT22;11708;50.570;8.532;2022-09-14T04:07:16;18.40;99.90
23081;DHT22;11708;50.570;8.532;2022-09-14T04:09:42;18.40;99.90
23081;DHT22;11708;50.570;8.532;2022-09-14T04:12:08;18.30;99.90
23081;DHT22;11708;50.570;8.532;2022-09-14T04:14:33;18.40;99.90
23081;DHT22;11708;50.570;8.532;2022-09-14T04:16:59;18.60;99.90
23081;DHT22;11708;50.570;8.532;2022-09-14T04:19:24;18.40;99.90
23081;DHT22;11708;50.570;8.532;2022-09-14T04:21:50;18.80;99.90
23081;DHT22;11708;50.570;8.532;2022-09-14T04:24:16;18.40;99.90
23081;DHT22;11708;50.570;8.532;2022-09-14T04:26:43;18.40;99.90
23081;DHT22;11708;50.570;8.532;2022-09-14T04:29:09;18.70;99.90
23081;DHT22;11708;50.570;8.532;2022-09-14T04:31:35;18.50;99.90
23081;DHT22;11708;50.570;8.532;2022-09-14T04:34:01;18.20;99.90
23081;DHT22;11708;50.570;8.532;2022-09-14T04:36:27;18.40;99.90
23081;DHT22;11708;50.570;8.532;2022-09-14T04:38:57;18.40;99.90
23081;DHT22;11708;50.570;8.532;2022-09-14T04:41:23;18.40;99.90
23081;DHT22;11708;50.570;8.532;2022-09-14T04:43:50;19.20;99.90
23081;DHT22;11708;50.570;8.532;2022-09-14T04:46:19;18.60;99.90
23081;DHT22;11708;50.570;8.532;2022-09-14T04:48:45;18.40;99.90
23081;DHT22;11708;50.570;8.532;2022-09-14T04:51:13;18.40;99.90
23081;DHT22;11708;50.570;8.532;2022-09-14T04:53:41;18.40;99.90
23081;DHT22;11708;50.570;8.532;2022-09-14T04:56:09;18.40;99.90
23081;DHT22;11708;50.570;8.532;2022-09-14T04:58:36;18.90;99.90
23081;DHT22;11708;50.570;8.532;2022-09-14T05:01:08;18.50;99.90
23081;DHT22;11708;50.570;8.532;2022-09-14T05:03:35;18.50;99.90
23081;DHT22;11708;50.570;8.532;2022-09-14T05:06:04;18.50;99.90
23081;DHT22;11708;50.570;8.532;2022-09-14T05:08:30;18.40;99.90
23081;DHT22;11708;50.570;8.532;2022-09-14T05:10:56;18.50;99.90
23081;DHT22;11708;50.570;8.532;2022-09-14T05:13:22;18.50;99.90
23081;DHT22;11708;50.570;8.532;2022-09-14T05:15:49;18.40;99.90
23081;DHT22;11708;50.570;8.532;2022-09-14T05:18:15;18.50;99.90
23081;DHT22;11708;50.570;8.532;2022-09-14T05:20:41;18.40;99.90
23081;DHT22;11708;50.570;8.532;2022-09-14T05:23:06;18.70;99.90
23081;DHT22;11708;50.570;8.532;2022-09-14T05:25:32;18.30;99.90
23081;DHT22;11708;50.570;8.532;2022-09-14T05:27:57;18.40;99.90
23081;DHT22;11708;50.570;8.532;2022-09-14T05:30:23;18.60;99.90
23081;DHT22;11708;50.570;8.532;2022-09-14T05:32:48;18.40;99.90
23081;DHT22;11708;50.570;8.532;2022-09-14T05:35:14;18.40;99.90
23081;DHT22;11708;50.570;8.532;2022-09-14T05:37:40;18.40;99.90
23081;DHT22;11708;50.570;8.532;2022-09-14T05:40:05;18.30;99.90
23081;DHT22;11708;50.570;8.532;2022-09-14T05:42:33;18.40;99.90
23081;DHT22;11708;50.570;8.532;2022-09-14T05:44:59;18.50;99.90
23081;DHT22;11708;50.570;8.532;2022-09-14T05:47:25;18.40;99.90
23081;DHT22;11708;50.570;8.532;2022-09-14T05:49:52;18.50;99.90
23081;DHT22;11708;50.570;8.532;2022-09-14T05:52:18;18.40;99.90
23081;DHT22;11708;50.570;8.532;2022-09-14T05:54:44;18.70;99.90
23081;DHT22;11708;50.570;8.532;2022-09-14T05:57:10;18.40;99.90
23081;DHT22;11708;50.570;8.532;2022-09-14T05:59:36;18.40;99.90
23081;DHT22;11708;50.570;8.532;2022-09-14T06:02:01;18.40;99.90
23081;DHT22;11708;50.570;8.532;2022-09-14T06:04:27;18.40;99.90
23081;DHT22;11708;50.570;8.532;2022-09-14T06:06:52;18.40;99.90
23081;DHT22;11708;50.570;8.532;2022-09-14T06:09:18;18.40;99.90
23081;DHT22;11708;50.570;8.532;2022-09-14T06:11:44;18.40;99.90
23081;DHT22;11708;50.570;8.532;2022-09-14T06:14:09;18.40;99.90
23081;DHT22;11708;50.570;8.532;2022-09-14T06:16:34;18.40;99.90
23081;DHT22;11708;50.570;8.532;2022-09-14T06:19:00;18.40;99.90
23081;DHT22;11708;50.570;8.532;2022-09-14T06:21:31;18.50;99.90
23081;DHT22;11708;50.570;8.532;2022-09-14T06:23:57;18.50;99.90
23081;DHT22;11708;50.570;8.532;2022-09-14T06:26:24;18.20;99.90
23081;DHT22;11708;50.570;8.532;2022-09-14T06:28:50;18.50;99.90
23081;DHT22;11708;50.570;8.532;2022-09-14T06:31:17;18.60;99.90
23081;DHT22;11708;50.570;8.532;2022-09-14T06:33:48;18.50;99.90
23081;DHT22;11708;50.570;8.532;2022-09-14T06:36:16;18.60;99.90
23081;DHT22;11708;50.570;8.532;2022-09-14T06:38:44;18.80;99.90
23081;DHT22;11708;50.570;8.532;2022-09-14T06:41:12;18.70;99.90
23081;DHT22;11708;50.570;8.532;2022-09-14T06:43:40;18.50;99.90
23081;DHT22;11708;50.570;8.532;2022-09-14T06:46:16;19.50;99.90
23081;DHT22;11708;50.570;8.532;2022-09-14T06:48:47;18.50;99.90
23081;DHT22;11708;50.570;8.532;2022-09-14T06:51:17;18.50;99.90
23081;DHT22;11708;50.570;8.532;2022-09-14T06:53:44;18.50;99.90
23081;DHT22;11708;50.570;8.532;2022-09-14T06:56:11;18.40;99.90
23081;DHT22;11708;50.570;8.532;2022-09-14T06:58:37;18.50;99.90
23081;DHT22;11708;50.570;8.532;2022-09-14T07:01:10;18.50;99.90
23081;DHT22;11708;50.570;8.532;2022-09-14T07:03:37;18.60;99.90
23081;DHT22;11708;50.570;8.532;2022-09-14T07:06:08;18.60;99.90
23081;DHT22;11708;50.570;8.532;2022-09-14T07:08:36;18.60;99.90
23081;DHT22;11708;50.570;8.532;2022-09-14T07:11:02;18.60;99.90
23081;DHT22;11708;50.570;8.532;2022-09-14T07:13:29;18.60;99.90
23081;DHT22;11708;50.570;8.532;2022-09-14T07:15:55;18.60;99.90
23081;DHT22;11708;50.570;8.532;2022-09-14T07:18:24;18.60;99.90
23081;DHT22;11708;50.570;8.532;2022-09-14T07:21:04;18.60;99.90
23081;DHT22;11708;50.570;8.532;2022-09-14T07:23:30;18.70;99.90
23081;DHT22;11708;50.570;8.532;2022-09-14T07:26:01;18.70;99.90
23081;DHT22;11708;50.570;8.532;2022-09-14T07:28:27;18.70;99.90
23081;DHT22;11708;50.570;8.532;2022-09-14T07:30:53;18.70;99.90
23081;DHT22;11708;50.570;8.532;2022-09-14T07:33:19;18.80;99.90
23081;DHT22;11708;50.570;8.532;2022-09-14T07:35:44;18.80;99.90
23081;DHT22;11708;50.570;8.532;2022-09-14T07:38:10;18.90;99.90
23081;DHT22;11708;50.570;8.532;2022-09-14T07:40:35;19.70;99.90
23081;DHT22;11708;50.570;8.532;2022-09-14T07:43:01;18.90;99.90
23081;DHT22;11708;50.570;8.532;2022-09-14T07:45:26;18.90;99.90
23081;DHT22;11708;50.570;8.532;2022-09-14T07:47:52;18.90;99.90
23081;DHT22;11708;50.570;8.532;2022-09-14T07:50:17;19.00;99.90
23081;DHT22;11708;50.570;8.532;2022-09-14T07:52:43;19.10;99.90
23081;DHT22;11708;50.570;8.532;2022-09-14T07:55:09;19.10;99.90
23081;DHT22;11708;50.570;8.532;2022-09-14T07:57:37;19.10;99.90
23081;DHT22;11708;50.570;8.532;2022-09-14T08:00:03;19.20;99.90
23081;DHT22;11708;50.570;8.532;2022-09-14T08:02:29;19.20;99.90
23081;DHT22;11708;50.570;8.532;2022-09-14T08:04:55;19.20;99.90
23081;DHT22;11708;50.570;8.532;2022-09-14T08:07:20;19.30;99.90
23081;DHT22;11708;50.570;8.532;2022-09-14T08:09:46;19.30;99.90
23081;DHT22;11708;50.570;8.532;2022-09-14T08:12:12;19.70;99.90
23081;DHT22;11708;50.570;8.532;2022-09-14T08:14:40;19.80;99.90
23081;DHT22;11708;50.570;8.532;2022-09-14T08:17:06;19.50;99.90
23081;DHT22;11708;50.570;8.532;2022-09-14T08:19:32;19.50;99.90
23081;DHT22;11708;50.570;8.532;2022-09-14T08:21:57;19.60;99.90
23081;DHT22;11708;50.570;8.532;2022-09-14T08:24:23;19.60;99.90
23081;DHT22;11708;50.570;8.532;2022-09-14T08:26:49;19.50;99.90
23081;DHT22;11708;50.570;8.532;2022-09-14T08:29:17;19.60;99.90
23081;DHT22;11708;50.570;8.532;2022-09-14T08:31:43;19.70;99.90
23081;DHT22;11708;50.570;8.532;2022-09-14T08:34:09;19.70;99.90
23081;DHT22;11708;50.570;8.532;2022-09-14T08:36:38;20.00;99.90
23081;DHT22;11708;50.570;8.532;2022-09-14T08:39:06;19.80;99.90
23081;DHT22;11708;50.570;8.532;2022-09-14T08:41:43;20.10;99.90
23081;DHT22;11708;50.570;8.532;2022-09-14T08:46:43;19.90;99.90
23081;DHT22;11708;50.570;8.532;2022-09-14T08:49:19;19.90;99.90
23081;DHT22;11708;50.570;8.532;2022-09-14T08:51:46;20.00;99.90
23081;DHT22;11708;50.570;8.532;2022-09-14T08:54:11;20.20;99.90
23081;DHT22;11708;50.570;8.532;2022-09-14T08:56:40;20.10;99.90
23081;DHT22;11708;50.570;8.532;2022-09-14T09:10:31;20.20;99.90
23081;DHT22;11708;50.570;8.532;2022-09-14T09:12:59;20.20;99.90
23081;DHT22;11708;50.570;8.532;2022-09-14T09:18:35;20.10;99.90
23081;DHT22;11708;50.570;8.532;2022-09-14T09:21:29;20.00;99.90
23081;DHT22;11708;50.570;8.532;2022-09-14T09:26:41;19.90;99.90
23081;DHT22;11708;50.570;8.532;2022-09-14T09:29:08;19.90;99.90
23081;DHT22;11708;50.570;8.532;2022-09-14T09:31:39;19.80;99.90
23081;DHT22;11708;50.570;8.532;2022-09-14T09:34:13;19.70;99.90
23081;DHT22;11708;50.570;8.532;2022-09-14T09:36:42;19.60;99.90
23081;DHT22;11708;50.570;8.532;2022-09-14T09:39:08;19.60;99.90
23081;DHT22;11708;50.570;8.532;2022-09-14T09:41:45;19.60;99.90
23081;DHT22;11708;50.570;8.532;2022-09-14T09:44:12;19.50;99.90
23081;DHT22;11708;50.570;8.532;2022-09-14T09:46:43;19.60;99.90
23081;DHT22;11708;50.570;8.532;2022-09-14T09:49:18;19.60;99.90
23081;DHT22;11708;50.570;8.532;2022-09-14T09:51:44;19.60;99.90
23081;DHT22;11708;50.570;8.532;2022-09-14T09:56:52;19.60;99.90
23081;DHT22;11708;50.570;8.532;2022-09-14T10:01:55;19.70;99.90
23081;DHT22;11708;50.570;8.532;2022-09-14T10:04:25;19.70;99.90
23081;DHT22;11708;50.570;8.532;2022-09-14T10:06:53;19.80;99.90
23081;DHT22;11708;50.570;8.532;2022-09-14T10:09:23;19.80;99.90
23081;DHT22;11708;50.570;8.532;2022-09-14T10:12:00;19.90;99.90
23081;DHT22;11708;50.570;8.532;2022-09-14T10:14:30;20.00;99.90
23081;DHT22;11708;50.570;8.532;2022-09-14T10:19:30;20.20;99.90
23081;DHT22;11708;50.570;8.532;2022-09-14T10:22:16;20.30;99.90
23081;DHT22;11708;50.570;8.532;2022-09-14T10:24:51;20.50;99.90
23081;DHT22;11708;50.570;8.532;2022-09-14T10:27:47;20.60;99.90
23081;DHT22;11708;50.570;8.532;2022-09-14T10:30:15;20.60;99.90
23081;DHT22;11708;50.570;8.532;2022-09-14T10:35:15;20.70;99.90
23081;DHT22;11708;50.570;8.532;2022-09-14T10:40:34;20.60;99.90
23081;DHT22;11708;50.570;8.532;2022-09-14T10:43:08;20.60;99.90
23081;DHT22;11708;50.570;8.532;2022-09-14T10:45:43;20.70;99.90
23081;DHT22;11708;50.570;8.532;2022-09-14T10:51:48;20.30;99.90
23081;DHT22;11708;50.570;8.532;2022-09-14T10:57:41;20.10;99.90
23081;DHT22;11708;50.570;8.532;2022-09-14T11:00:15;20.00;99.90
23081;DHT22;11708;50.570;8.532;2022-09-14T11:02:56;20.00;99.90
23081;DHT22;11708;50.570;8.532;2022-09-14T11:06:10;20.10;99.90
23081;DHT22;11708;50.570;8.532;2022-09-14T11:08:45;20.00;99.90
23081;DHT22;11708;50.570;8.532;2022-09-14T11:11:40;20.00;99.90
23081;DHT22;11708;50.570;8.532;2022-09-14T11:14:24;20.00;99.90
23081;DHT22;11708;50.570;8.532;2022-09-14T11:19:38;19.90;99.90
23081;DHT22;11708;50.570;8.532;2022-09-14T11:22:27;19.90;99.90
23081;DHT22;11708;50.570;8.532;2022-09-14T11:27:45;19.90;99.90
23081;DHT22;11708;50.570;8.532;2022-09-14T11:30:20;19.90;99.90
23081;DHT22;11708;50.570;8.532;2022-09-14T11:33:03;19.90;99.90
23081;DHT22;11708;50.570;8.532;2022-09-14T11:35:46;19.90;99.90
23081;DHT22;11708;50.570;8.532;2022-09-14T11:38:30;19.90;99.90
23081;DHT22;11708;50.570;8.532;2022-09-14T11:41:22;19.90;99.90
23081;DHT22;11708;50.570;8.532;2022-09-14T11:43:58;19.90;99.90
23081;DHT22;11708;50.570;8.532;2022-09-14T11:49:05;19.90;99.90
23081;DHT22;11708;50.570;8.532;2022-09-14T11:51:46;19.90;99.90
23081;DHT22;11708;50.570;8.532;2022-09-14T11:54:16;19.90;99.90
23081;DHT22;11708;50.570;8.532;2022-09-14T11:56:46;19.90;99.90
23081;DHT22;11708;50.570;8.532;2022-09-14T11:59:36;20.00;99.90
23081;DHT22;11708;50.570;8.532;2022-09-14T12:12:43;19.80;99.90
23081;DHT22;11708;50.570;8.532;2022-09-14T12:18:13;19.80;99.90
23081;DHT22;11708;50.570;8.532;2022-09-14T12:20:40;19.80;99.90
23081;DHT22;11708;50.570;8.532;2022-09-14T12:36:06;20.40;99.90
23081;DHT22;11708;50.570;8.532;2022-09-14T12:39:05;20.50;99.90
23081;DHT22;11708;50.570;8.532;2022-09-14T12:43:59;21.20;99.90
23081;DHT22;11708;50.570;8.532;2022-09-14T12:46:36;20.70;99.90
23081;DHT22;11708;50.570;8.532;2022-09-14T12:49:21;20.90;99.90
23081;DHT22;11708;50.570;8.532;2022-09-14T12:51:48;21.30;99.90
23081;DHT22;11708;50.570;8.532;2022-09-14T12:57:35;21.00;99.90
23081;DHT22;11708;50.570;8.532;2022-09-14T13:05:26;20.90;99.90
23081;DHT22;11708;50.570;8.532;2022-09-14T13:07:53;20.90;99.90
23081;DHT22;11708;50.570;8.532;2022-09-14T13:10:30;20.90;99.90
23081;DHT22;11708;50.570;8.532;2022-09-14T13:12:56;20.90;99.90
23081;DHT22;11708;50.570;8.532;2022-09-14T13:15:28;20.90;99.90
23081;DHT22;11708;50.570;8.532;2022-09-14T13:17:59;20.80;99.90
23081;DHT22;11708;50.570;8.532;2022-09-14T13:20:26;20.80;99.90
23081;DHT22;11708;50.570;8.532;2022-09-14T13:22:52;20.80;99.90
23081;DHT22;11708;50.570;8.532;2022-09-14T13:25:44;20.80;99.90
23081;DHT22;11708;50.570;8.532;2022-09-14T13:28:16;20.80;99.90
23081;DHT22;11708;50.570;8.532;2022-09-14T13:30:42;20.80;99.90
23081;DHT22;11708;50.570;8.532;2022-09-14T13:33:17;20.80;99.90
23081;DHT22;11708;50.570;8.532;2022-09-14T13:35:46;20.90;99.90
23081;DHT22;11708;50.570;8.532;2022-09-14T13:38:24;21.10;99.90
23081;DHT22;11708;50.570;8.532;2022-09-14T13:40:53;20.90;99.90
23081;DHT22;11708;50.570;8.532;2022-09-14T13:43:21;20.70;99.90
23081;DHT22;11708;50.570;8.532;2022-09-14T13:45:50;20.80;99.90
23081;DHT22;11708;50.570;8.532;2022-09-14T13:48:17;20.90;99.90
23081;DHT22;11708;50.570;8.532;2022-09-14T13:50:47;20.90;99.90
23081;DHT22;11708;50.570;8.532;2022-09-14T13:53:39;21.00;99.90
23081;DHT22;11708;50.570;8.532;2022-09-14T14:02:02;21.00;99.90
23081;DHT22;11708;50.570;8.532;2022-09-14T14:04:36;21.00;99.90
23081;DHT22;11708;50.570;8.532;2022-09-14T14:07:21;21.10;99.90
23081;DHT22;11708;50.570;8.532;2022-09-14T14:09:48;21.10;99.90
23081;DHT22;11708;50.570;8.532;2022-09-14T14:12:36;21.10;99.90
23081;DHT22;11708;50.570;8.532;2022-09-14T14:17:37;21.10;99.90
23081;DHT22;11708;50.570;8.532;2022-09-14T14:25:33;21.10;99.90
23081;DHT22;11708;50.570;8.532;2022-09-14T14:28:04;21.00;99.90
23081;DHT22;11708;50.570;8.532;2022-09-14T14:30:34;21.00;99.90
23081;DHT22;11708;50.570;8.532;2022-09-14T14:33:01;21.00;99.90
23081;DHT22;11708;50.570;8.532;2022-09-14T14:35:31;21.00;99.90
23081;DHT22;11708;50.570;8.532;2022-09-14T14:37:57;21.00;99.90
23081;DHT22;11708;50.570;8.532;2022-09-14T14:40:24;20.90;99.90
23081;DHT22;11708;50.570;8.532;2022-09-14T14:42:52;20.90;99.90
23081;DHT22;11708;50.570;8.532;2022-09-14T14:45:21;20.90;99.90
23081;DHT22;11708;50.570;8.532;2022-09-14T14:47:49;20.80;99.90
23081;DHT22;11708;50.570;8.532;2022-09-14T14:50:23;21.10;99.90
23081;DHT22;11708;50.570;8.532;2022-09-14T14:52:50;20.70;99.90
23081;DHT22;11708;50.570;8.532;2022-09-14T14:55:16;21.30;99.90
23081;DHT22;11708;50.570;8.532;2022-09-14T14:57:42;20.60;99.90
23081;DHT22;11708;50.570;8.532;2022-09-14T15:00:17;20.60;99.90
23081;DHT22;11708;50.570;8.532;2022-09-14T15:02:43;20.50;99.90
23081;DHT22;11708;50.570;8.532;2022-09-14T15:05:10;20.40;99.90
23081;DHT22;11708;50.570;8.532;2022-09-14T15:07:35;20.30;99.90
23081;DHT22;11708;50.570;8.532;2022-09-14T15:10:01;20.20;99.90
23081;DHT22;11708;50.570;8.532;2022-09-14T15:12:27;20.10;99.90
23081;DHT22;11708;50.570;8.532;2022-09-14T15:14:52;20.00;99.90
23081;DHT22;11708;50.570;8.532;2022-09-14T15:17:18;19.90;99.90
23081;DHT22;11708;50.570;8.532;2022-09-14T15:19:44;19.90;99.90
23081;DHT22;11708;50.570;8.532;2022-09-14T15:22:10;19.80;99.90
23081;DHT22;11708;50.570;8.532;2022-09-14T15:24:35;19.80;99.90
23081;DHT22;11708;50.570;8.532;2022-09-14T15:27:01;19.70;99.90
23081;DHT22;11708;50.570;8.532;2022-09-14T15:29:27;19.80;99.90
23081;DHT22;11708;50.570;8.532;2022-09-14T15:31:53;19.70;99.90
23081;DHT22;11708;50.570;8.532;2022-09-14T15:34:19;19.60;99.90
23081;DHT22;11708;50.570;8.532;2022-09-14T15:36:47;19.60;99.90
23081;DHT22;11708;50.570;8.532;2022-09-14T15:39:16;19.60;99.90
23081;DHT22;11708;50.570;8.532;2022-09-14T15:41:42;20.70;99.90
23081;DHT22;11708;50.570;8.532;2022-09-14T15:44:08;19.50;99.90
23081;DHT22;11708;50.570;8.532;2022-09-14T15:46:36;19.20;99.90
23081;DHT22;11708;50.570;8.532;2022-09-14T15:49:06;19.40;99.90
23081;DHT22;11708;50.570;8.532;2022-09-14T15:51:32;19.40;99.90
23081;DHT22;11708;50.570;8.532;2022-09-14T15:53:59;19.40;99.90
23081;DHT22;11708;50.570;8.532;2022-09-14T15:56:25;19.30;99.90
23081;DHT22;11708;50.570;8.532;2022-09-14T15:58:51;19.40;99.90
23081;DHT22;11708;50.570;8.532;2022-09-14T16:01:17;19.40;99.90
23081;DHT22;11708;50.570;8.532;2022-09-14T16:03:43;19.50;99.90
23081;DHT22;11708;50.570;8.532;2022-09-14T16:06:10;19.50;99.90
23081;DHT22;11708;50.570;8.532;2022-09-14T16:08:37;19.80;99.90
23081;DHT22;11708;50.570;8.532;2022-09-14T16:11:04;19.50;99.90
23081;DHT22;11708;50.570;8.532;2022-09-14T16:13:30;19.50;99.90
23081;DHT22;11708;50.570;8.532;2022-09-14T16:18:28;19.50;99.90
23081;DHT22;11708;50.570;8.532;2022-09-14T16:20:54;19.50;99.90
23081;DHT22;11708;50.570;8.532;2022-09-14T16:23:20;19.50;99.90
23081;DHT22;11708;50.570;8.532;2022-09-14T16:25:45;19.40;99.90
23081;DHT22;11708;50.570;8.532;2022-09-14T16:28:11;19.40;99.90
23081;DHT22;11708;50.570;8.532;2022-09-14T16:30:36;19.50;99.90
23081;DHT22;11708;50.570;8.532;2022-09-14T16:33:02;20.20;99.90
23081;DHT22;11708;50.570;8.532;2022-09-14T16:35:28;19.40;99.90
23081;DHT22;11708;50.570;8.532;2022-09-14T16:37:53;19.40;99.90
23081;DHT22;11708;50.570;8.532;2022-09-14T16:40:19;19.40;99.90
23081;DHT22;11708;50.570;8.532;2022-09-14T16:42:44;19.40;99.90
23081;DHT22;11708;50.570;8.532;2022-09-14T16:45:12;19.50;99.90
23081;DHT22;11708;50.570;8.532;2022-09-14T16:47:38;19.40;99.90
23081;DHT22;11708;50.570;8.532;2022-09-14T16:50:04;19.20;99.90
23081;DHT22;11708;50.570;8.532;2022-09-14T16:52:30;19.40;99.90
23081;DHT22;11708;50.570;8.532;2022-09-14T16:54:56;19.40;99.90
23081;DHT22;11708;50.570;8.532;2022-09-14T16:57:22;19.40;99.90
23081;DHT22;11708;50.570;8.532;2022-09-14T16:59:51;19.40;99.90
23081;DHT22;11708;50.570;8.532;2022-09-14T17:02:16;19.40;99.90
23081;DHT22;11708;50.570;8.532;2022-09-14T17:04:42;19.40;99.90
23081;DHT22;11708;50.570;8.532;2022-09-14T17:07:07;19.40;99.90
23081;DHT22;11708;50.570;8.532;2022-09-14T17:09:34;19.40;99.90
23081;DHT22;11708;50.570;8.532;2022-09-14T17:12:00;19.40;99.90
23081;DHT22;11708;50.570;8.532;2022-09-14T17:14:31;19.40;99.90
23081;DHT22;11708;50.570;8.532;2022-09-14T17:16:57;19.30;99.90
23081;DHT22;11708;50.570;8.532;2022-09-14T17:19:23;19.20;99.90
23081;DHT22;11708;50.570;8.532;2022-09-14T17:21:49;19.20;99.90
23081;DHT22;11708;50.570;8.532;2022-09-14T17:24:16;19.10;99.90
23081;DHT22;11708;50.570;8.532;2022-09-14T17:26:43;19.00;99.90
23081;DHT22;11708;50.570;8.532;2022-09-14T17:29:09;18.90;99.90
23081;DHT22;11708;50.570;8.532;2022-09-14T17:31:38;18.90;99.90
23081;DHT22;11708;50.570;8.532;2022-09-14T17:34:07;19.60;99.90
23081;DHT22;11708;50.570;8.532;2022-09-14T17:36:33;18.90;99.90
23081;DHT22;11708;50.570;8.532;2022-09-14T17:39:00;18.70;99.90
23081;DHT22;11708;50.570;8.532;2022-09-14T17:41:27;18.70;99.90
23081;DHT22;11708;50.570;8.532;2022-09-14T17:44:00;18.60;99.90
23081;DHT22;11708;50.570;8.532;2022-09-14T17:46:28;18.40;99.90
23081;DHT22;11708;50.570;8.532;2022-09-14T17:48:59;18.60;99.90
23081;DHT22;11708;50.570;8.532;2022-09-14T17:51:27;19.00;99.90